sensor_id;sensor_type;location;lat;lon;timestamp;P1;durP1;ratioP1;P2;durP2;ratioP2
60241;SDS011;46103;52.076;113.488;2023-08-06T00:01:53;5.40;;;3.30;;
60241;SDS011;46103;52.076;113.488;2023-08-06T00:04:59;5.45;;;3.25;;
60241;SDS011;46103;52.076;113.488;2023-08-06T00:08:03;5.47;;;3.40;;
60241;SDS011;46103;52.076;113.488;2023-08-06T00:11:07;5.32;;;3.22;;
60241;SDS011;46103;52.076;113.488;2023-08-06T00:14:11;5.13;;;3.40;;
60241;SDS011;46103;52.076;113.488;2023-08-06T00:17:33;5.03;;;3.45;;
60241;SDS011;46103;52.076;113.488;2023-08-06T00:22:08;5.85;;;3.17;;
60241;SDS011;46103;52.076;113.488;2023-08-06T00:25:51;5.72;;;4.18;;
60241;SDS011;46103;52.076;113.488;2023-08-06T00:29:07;4.18;;;2.80;;
60241;SDS011;46103;52.076;113.488;2023-08-06T00:32:16;5.07;;;3.30;;
60241;SDS011;46103;52.076;113.488;2023-08-06T00:35:22;5.35;;;3.55;;
60241;SDS011;46103;52.076;113.488;2023-08-06T00:38:28;5.07;;;2.92;;
60241;SDS011;46103;52.076;113.488;2023-08-06T00:41:57;5.25;;;3.53;;
60241;SDS011;46103;52.076;113.488;2023-08-06T00:45:02;5.03;;;3.33;;
60241;SDS011;46103;52.076;113.488;2023-08-06T00:51:42;5.53;;;3.53;;
60241;SDS011;46103;52.076;113.488;2023-08-06T00:55:23;5.30;;;3.40;;
60241;SDS011;46103;52.076;113.488;2023-08-06T00:58:28;4.50;;;3.78;;
60241;SDS011;46103;52.076;113.488;2023-08-06T01:01:49;5.00;;;3.20;;
60241;SDS011;46103;52.076;113.488;2023-08-06T01:05:35;5.28;;;3.60;;
60241;SDS011;46103;52.076;113.488;2023-08-06T01:09:08;5.22;;;3.85;;
60241;SDS011;46103;52.076;113.488;2023-08-06T01:13:00;4.82;;;3.30;;
60241;SDS011;46103;52.076;113.488;2023-08-06T01:16:29;6.90;;;3.65;;
60241;SDS011;46103;52.076;113.488;2023-08-06T01:19:50;5.70;;;3.40;;
60241;SDS011;46103;52.076;113.488;2023-08-06T01:23:35;4.78;;;3.47;;
60241;SDS011;46103;52.076;113.488;2023-08-06T01:27:00;4.38;;;3.50;;
60241;SDS011;46103;52.076;113.488;2023-08-06T01:40:10;5.32;;;3.83;;
60241;SDS011;46103;52.076;113.488;2023-08-06T01:43:18;4.90;;;3.42;;
60241;SDS011;46103;52.076;113.488;2023-08-06T01:46:23;6.28;;;3.67;;
60241;SDS011;46103;52.076;113.488;2023-08-06T01:49:26;4.72;;;3.13;;
60241;SDS011;46103;52.076;113.488;2023-08-06T01:52:44;6.55;;;3.95;;
60241;SDS011;46103;52.076;113.488;2023-08-06T01:55:48;5.60;;;3.95;;
60241;SDS011;46103;52.076;113.488;2023-08-06T01:58:54;4.97;;;3.78;;
60241;SDS011;46103;52.076;113.488;2023-08-06T02:01:58;6.60;;;3.90;;
60241;SDS011;46103;52.076;113.488;2023-08-06T02:05:02;5.85;;;3.97;;
60241;SDS011;46103;52.076;113.488;2023-08-06T02:08:07;5.38;;;3.60;;
60241;SDS011;46103;52.076;113.488;2023-08-06T02:11:11;4.88;;;3.45;;
60241;SDS011;46103;52.076;113.488;2023-08-06T02:14:15;5.32;;;3.80;;
60241;SDS011;46103;52.076;113.488;2023-08-06T02:17:19;5.72;;;3.65;;
60241;SDS011;46103;52.076;113.488;2023-08-06T02:20:23;5.60;;;3.58;;
60241;SDS011;46103;52.076;113.488;2023-08-06T02:23:41;5.43;;;3.85;;
60241;SDS011;46103;52.076;113.488;2023-08-06T02:26:46;4.82;;;3.83;;
60241;SDS011;46103;52.076;113.488;2023-08-06T02:29:53;5.22;;;3.30;;
60241;SDS011;46103;52.076;113.488;2023-08-06T02:32:57;5.72;;;3.88;;
60241;SDS011;46103;52.076;113.488;2023-08-06T02:36:02;5.60;;;4.13;;
60241;SDS011;46103;52.076;113.488;2023-08-06T02:39:14;5.72;;;3.60;;
60241;SDS011;46103;52.076;113.488;2023-08-06T02:42:19;5.57;;;3.67;;
60241;SDS011;46103;52.076;113.488;2023-08-06T02:45:23;6.03;;;3.55;;
60241;SDS011;46103;52.076;113.488;2023-08-06T02:48:29;5.70;;;3.22;;
60241;SDS011;46103;52.076;113.488;2023-08-06T02:51:33;5.10;;;3.30;;
60241;SDS011;46103;52.076;113.488;2023-08-06T02:54:37;4.60;;;3.05;;
60241;SDS011;46103;52.076;113.488;2023-08-06T02:57:40;4.82;;;3.58;;
60241;SDS011;46103;52.076;113.488;2023-08-06T03:00:44;5.63;;;3.70;;
60241;SDS011;46103;52.076;113.488;2023-08-06T03:03:50;5.13;;;3.47;;
60241;SDS011;46103;52.076;113.488;2023-08-06T03:07:02;4.88;;;3.22;;
60241;SDS011;46103;52.076;113.488;2023-08-06T03:10:27;4.78;;;3.13;;
60241;SDS011;46103;52.076;113.488;2023-08-06T03:13:46;5.68;;;3.75;;
60241;SDS011;46103;52.076;113.488;2023-08-06T03:16:51;4.85;;;2.97;;
60241;SDS011;46103;52.076;113.488;2023-08-06T03:20:10;4.68;;;3.22;;
60241;SDS011;46103;52.076;113.488;2023-08-06T03:23:15;5.50;;;3.85;;
60241;SDS011;46103;52.076;113.488;2023-08-06T03:26:19;5.10;;;3.10;;
60241;SDS011;46103;52.076;113.488;2023-08-06T03:29:24;5.00;;;3.30;;
60241;SDS011;46103;52.076;113.488;2023-08-06T03:32:29;5.15;;;3.25;;
60241;SDS011;46103;52.076;113.488;2023-08-06T03:35:34;6.40;;;3.55;;
60241;SDS011;46103;52.076;113.488;2023-08-06T03:38:39;5.72;;;3.60;;
60241;SDS011;46103;52.076;113.488;2023-08-06T03:41:46;6.82;;;4.25;;
60241;SDS011;46103;52.076;113.488;2023-08-06T03:44:51;7.22;;;3.80;;
60241;SDS011;46103;52.076;113.488;2023-08-06T03:48:14;5.63;;;3.90;;
60241;SDS011;46103;52.076;113.488;2023-08-06T03:54:34;4.57;;;3.13;;
60241;SDS011;46103;52.076;113.488;2023-08-06T03:57:39;6.60;;;3.47;;
60241;SDS011;46103;52.076;113.488;2023-08-06T04:00:43;5.22;;;3.40;;
60241;SDS011;46103;52.076;113.488;2023-08-06T04:03:47;5.53;;;3.75;;
60241;SDS011;46103;52.076;113.488;2023-08-06T04:06:51;5.78;;;3.38;;
60241;SDS011;46103;52.076;113.488;2023-08-06T04:10:00;5.70;;;3.67;;
60241;SDS011;46103;52.076;113.488;2023-08-06T04:13:08;5.47;;;3.60;;
60241;SDS011;46103;52.076;113.488;2023-08-06T04:16:13;5.13;;;3.63;;
60241;SDS011;46103;52.076;113.488;2023-08-06T04:19:19;5.00;;;3.53;;
60241;SDS011;46103;52.076;113.488;2023-08-06T04:22:29;4.88;;;3.05;;
60241;SDS011;46103;52.076;113.488;2023-08-06T04:25:33;4.60;;;3.10;;
60241;SDS011;46103;52.076;113.488;2023-08-06T04:28:37;5.28;;;3.15;;
60241;SDS011;46103;52.076;113.488;2023-08-06T04:31:43;4.95;;;3.30;;
60241;SDS011;46103;52.076;113.488;2023-08-06T04:34:48;5.65;;;3.47;;
60241;SDS011;46103;52.076;113.488;2023-08-06T04:37:53;4.32;;;3.00;;
60241;SDS011;46103;52.076;113.488;2023-08-06T04:40:57;4.93;;;3.53;;
60241;SDS011;46103;52.076;113.488;2023-08-06T04:44:02;5.13;;;3.50;;
60241;SDS011;46103;52.076;113.488;2023-08-06T04:47:07;5.93;;;3.67;;
60241;SDS011;46103;52.076;113.488;2023-08-06T04:50:11;4.93;;;3.78;;
60241;SDS011;46103;52.076;113.488;2023-08-06T04:53:17;4.72;;;3.78;;
60241;SDS011;46103;52.076;113.488;2023-08-06T04:56:21;5.28;;;3.88;;
60241;SDS011;46103;52.076;113.488;2023-08-06T04:59:25;4.82;;;3.58;;
60241;SDS011;46103;52.076;113.488;2023-08-06T05:02:29;5.50;;;3.60;;
60241;SDS011;46103;52.076;113.488;2023-08-06T05:05:36;5.25;;;3.95;;
60241;SDS011;46103;52.076;113.488;2023-08-06T05:08:42;5.00;;;3.60;;
60241;SDS011;46103;52.076;113.488;2023-08-06T05:11:46;5.05;;;3.97;;
60241;SDS011;46103;52.076;113.488;2023-08-06T05:14:52;5.05;;;3.75;;
60241;SDS011;46103;52.076;113.488;2023-08-06T05:17:56;5.18;;;4.15;;
60241;SDS011;46103;52.076;113.488;2023-08-06T05:21:00;5.90;;;3.85;;
60241;SDS011;46103;52.076;113.488;2023-08-06T05:24:04;6.63;;;4.18;;
60241;SDS011;46103;52.076;113.488;2023-08-06T05:27:10;5.70;;;4.18;;
60241;SDS011;46103;52.076;113.488;2023-08-06T05:30:16;5.57;;;4.18;;
60241;SDS011;46103;52.076;113.488;2023-08-06T05:33:20;5.43;;;4.60;;
60241;SDS011;46103;52.076;113.488;2023-08-06T05:36:25;5.45;;;4.53;;
60241;SDS011;46103;52.076;113.488;2023-08-06T05:39:31;5.63;;;4.18;;
60241;SDS011;46103;52.076;113.488;2023-08-06T05:42:35;5.70;;;3.85;;
60241;SDS011;46103;52.076;113.488;2023-08-06T05:45:39;4.80;;;3.60;;
60241;SDS011;46103;52.076;113.488;2023-08-06T05:49:00;5.57;;;3.78;;
60241;SDS011;46103;52.076;113.488;2023-08-06T05:52:04;5.15;;;3.72;;
60241;SDS011;46103;52.076;113.488;2023-08-06T05:55:09;4.90;;;3.50;;
60241;SDS011;46103;52.076;113.488;2023-08-06T05:58:14;4.68;;;3.58;;
60241;SDS011;46103;52.076;113.488;2023-08-06T06:01:19;5.38;;;3.50;;
60241;SDS011;46103;52.076;113.488;2023-08-06T06:04:22;5.95;;;4.15;;
60241;SDS011;46103;52.076;113.488;2023-08-06T06:07:28;5.40;;;3.97;;
60241;SDS011;46103;52.076;113.488;2023-08-06T06:10:45;5.30;;;3.90;;
60241;SDS011;46103;52.076;113.488;2023-08-06T06:13:50;6.30;;;4.95;;
60241;SDS011;46103;52.076;113.488;2023-08-06T06:16:55;6.03;;;4.95;;
60241;SDS011;46103;52.076;113.488;2023-08-06T06:19:59;6.50;;;4.72;;
60241;SDS011;46103;52.076;113.488;2023-08-06T06:23:03;6.05;;;5.07;;
60241;SDS011;46103;52.076;113.488;2023-08-06T06:26:07;7.63;;;5.20;;
60241;SDS011;46103;52.076;113.488;2023-08-06T06:29:12;8.65;;;4.85;;
60241;SDS011;46103;52.076;113.488;2023-08-06T06:32:16;6.70;;;4.97;;
60241;SDS011;46103;52.076;113.488;2023-08-06T06:35:20;6.43;;;4.88;;
60241;SDS011;46103;52.076;113.488;2023-08-06T06:38:24;6.38;;;4.72;;
60241;SDS011;46103;52.076;113.488;2023-08-06T06:41:29;6.35;;;4.80;;
60241;SDS011;46103;52.076;113.488;2023-08-06T06:44:45;6.65;;;4.60;;
60241;SDS011;46103;52.076;113.488;2023-08-06T06:50:40;6.27;;;5.30;;
60241;SDS011;46103;52.076;113.488;2023-08-06T06:53:47;6.78;;;5.60;;
60241;SDS011;46103;52.076;113.488;2023-08-06T06:56:51;6.50;;;5.45;;
60241;SDS011;46103;52.076;113.488;2023-08-06T06:59:56;7.20;;;5.45;;
60241;SDS011;46103;52.076;113.488;2023-08-06T07:03:00;5.72;;;5.07;;
60241;SDS011;46103;52.076;113.488;2023-08-06T07:06:04;7.10;;;5.05;;
60241;SDS011;46103;52.076;113.488;2023-08-06T07:09:10;8.00;;;5.60;;
60241;SDS011;46103;52.076;113.488;2023-08-06T07:12:14;7.38;;;5.72;;
60241;SDS011;46103;52.076;113.488;2023-08-06T07:15:18;8.07;;;5.88;;
60241;SDS011;46103;52.076;113.488;2023-08-06T07:18:37;8.60;;;5.97;;
60241;SDS011;46103;52.076;113.488;2023-08-06T07:21:54;8.45;;;5.97;;
60241;SDS011;46103;52.076;113.488;2023-08-06T07:25:16;7.90;;;6.13;;
60241;SDS011;46103;52.076;113.488;2023-08-06T07:28:33;7.30;;;6.25;;
60241;SDS011;46103;52.076;113.488;2023-08-06T07:32:41;8.52;;;6.65;;
60241;SDS011;46103;52.076;113.488;2023-08-06T07:35:48;7.95;;;6.38;;
60241;SDS011;46103;52.076;113.488;2023-08-06T07:38:57;7.35;;;5.80;;
60241;SDS011;46103;52.076;113.488;2023-08-06T07:42:20;6.70;;;5.90;;
60241;SDS011;46103;52.076;113.488;2023-08-06T07:45:39;6.93;;;5.68;;
60241;SDS011;46103;52.076;113.488;2023-08-06T07:49:19;6.18;;;5.57;;
60241;SDS011;46103;52.076;113.488;2023-08-06T07:52:42;6.72;;;5.95;;
60241;SDS011;46103;52.076;113.488;2023-08-06T07:56:02;7.03;;;5.75;;
60241;SDS011;46103;52.076;113.488;2023-08-06T07:59:12;7.80;;;5.93;;
60241;SDS011;46103;52.076;113.488;2023-08-06T08:02:53;7.97;;;6.07;;
60241;SDS011;46103;52.076;113.488;2023-08-06T08:07:05;7.18;;;5.70;;
60241;SDS011;46103;52.076;113.488;2023-08-06T08:10:23;6.72;;;5.65;;
60241;SDS011;46103;52.076;113.488;2023-08-06T08:13:42;8.60;;;6.30;;
60241;SDS011;46103;52.076;113.488;2023-08-06T08:17:05;7.65;;;5.75;;
60241;SDS011;46103;52.076;113.488;2023-08-06T08:20:23;7.47;;;5.85;;
60241;SDS011;46103;52.076;113.488;2023-08-06T08:23:34;7.93;;;5.97;;
60241;SDS011;46103;52.076;113.488;2023-08-06T08:28:01;6.57;;;5.10;;
60241;SDS011;46103;52.076;113.488;2023-08-06T08:32:06;7.50;;;5.78;;
60241;SDS011;46103;52.076;113.488;2023-08-06T08:35:15;5.85;;;4.90;;
60241;SDS011;46103;52.076;113.488;2023-08-06T08:38:43;7.32;;;5.53;;
60241;SDS011;46103;52.076;113.488;2023-08-06T08:42:26;7.13;;;5.88;;
60241;SDS011;46103;52.076;113.488;2023-08-06T08:46:49;7.85;;;5.57;;
60241;SDS011;46103;52.076;113.488;2023-08-06T08:50:38;7.35;;;6.22;;
60241;SDS011;46103;52.076;113.488;2023-08-06T08:53:43;8.80;;;6.03;;
60241;SDS011;46103;52.076;113.488;2023-08-06T08:57:09;8.95;;;6.45;;
60241;SDS011;46103;52.076;113.488;2023-08-06T09:00:34;9.55;;;6.95;;
60241;SDS011;46103;52.076;113.488;2023-08-06T09:03:40;8.30;;;6.55;;
60241;SDS011;46103;52.076;113.488;2023-08-06T09:07:23;10.85;;;6.60;;
60241;SDS011;46103;52.076;113.488;2023-08-06T09:10:49;10.15;;;7.25;;
60241;SDS011;46103;52.076;113.488;2023-08-06T09:14:23;9.48;;;7.32;;
60241;SDS011;46103;52.076;113.488;2023-08-06T09:17:26;8.77;;;6.47;;
60241;SDS011;46103;52.076;113.488;2023-08-06T09:20:31;7.75;;;6.55;;
60241;SDS011;46103;52.076;113.488;2023-08-06T09:23:38;8.90;;;7.22;;
60241;SDS011;46103;52.076;113.488;2023-08-06T09:26:46;9.60;;;6.30;;
60241;SDS011;46103;52.076;113.488;2023-08-06T09:29:51;10.27;;;7.20;;
60241;SDS011;46103;52.076;113.488;2023-08-06T09:32:55;10.30;;;6.00;;
60241;SDS011;46103;52.076;113.488;2023-08-06T09:36:06;8.43;;;6.90;;
60241;SDS011;46103;52.076;113.488;2023-08-06T09:39:14;8.68;;;7.78;;
60241;SDS011;46103;52.076;113.488;2023-08-06T09:42:21;10.40;;;8.25;;
60241;SDS011;46103;52.076;113.488;2023-08-06T09:45:30;9.43;;;7.53;;
60241;SDS011;46103;52.076;113.488;2023-08-06T09:48:44;9.82;;;7.05;;
60241;SDS011;46103;52.076;113.488;2023-08-06T09:51:50;9.13;;;8.13;;
60241;SDS011;46103;52.076;113.488;2023-08-06T09:54:57;8.65;;;6.93;;
60241;SDS011;46103;52.076;113.488;2023-08-06T09:58:06;8.70;;;7.75;;
60241;SDS011;46103;52.076;113.488;2023-08-06T10:01:11;8.57;;;7.25;;
60241;SDS011;46103;52.076;113.488;2023-08-06T10:04:16;8.48;;;7.20;;
60241;SDS011;46103;52.076;113.488;2023-08-06T10:07:36;10.02;;;7.10;;
60241;SDS011;46103;52.076;113.488;2023-08-06T10:10:51;9.88;;;7.90;;
60241;SDS011;46103;52.076;113.488;2023-08-06T10:14:11;9.82;;;7.90;;
60241;SDS011;46103;52.076;113.488;2023-08-06T10:17:15;10.00;;;7.57;;
60241;SDS011;46103;52.076;113.488;2023-08-06T10:20:24;9.02;;;7.60;;
60241;SDS011;46103;52.076;113.488;2023-08-06T10:23:32;10.13;;;8.05;;
60241;SDS011;46103;52.076;113.488;2023-08-06T10:26:42;9.30;;;7.68;;
60241;SDS011;46103;52.076;113.488;2023-08-06T10:30:20;10.10;;;8.07;;
60241;SDS011;46103;52.076;113.488;2023-08-06T10:33:45;9.60;;;7.65;;
60241;SDS011;46103;52.076;113.488;2023-08-06T10:36:50;9.23;;;7.40;;
60241;SDS011;46103;52.076;113.488;2023-08-06T10:39:57;8.07;;;7.20;;
60241;SDS011;46103;52.076;113.488;2023-08-06T10:43:03;9.18;;;6.72;;
60241;SDS011;46103;52.076;113.488;2023-08-06T10:46:11;8.15;;;6.68;;
60241;SDS011;46103;52.076;113.488;2023-08-06T10:49:25;8.73;;;6.78;;
60241;SDS011;46103;52.076;113.488;2023-08-06T10:52:30;7.53;;;5.90;;
60241;SDS011;46103;52.076;113.488;2023-08-06T10:55:35;8.43;;;7.13;;
60241;SDS011;46103;52.076;113.488;2023-08-06T10:58:43;9.32;;;6.55;;
60241;SDS011;46103;52.076;113.488;2023-08-06T11:01:48;8.63;;;6.95;;
60241;SDS011;46103;52.076;113.488;2023-08-06T11:04:54;9.65;;;8.20;;
60241;SDS011;46103;52.076;113.488;2023-08-06T11:08:00;10.02;;;7.60;;
60241;SDS011;46103;52.076;113.488;2023-08-06T11:11:08;6.85;;;5.97;;
60241;SDS011;46103;52.076;113.488;2023-08-06T11:14:17;8.63;;;7.22;;
60241;SDS011;46103;52.076;113.488;2023-08-06T11:17:21;8.95;;;6.63;;
60241;SDS011;46103;52.076;113.488;2023-08-06T11:20:25;10.43;;;8.48;;
60241;SDS011;46103;52.076;113.488;2023-08-06T11:23:30;11.30;;;8.95;;
60241;SDS011;46103;52.076;113.488;2023-08-06T11:26:34;22.95;;;19.67;;
60241;SDS011;46103;52.076;113.488;2023-08-06T11:29:42;35.42;;;27.77;;
60241;SDS011;46103;52.076;113.488;2023-08-06T11:32:50;21.55;;;18.55;;
60241;SDS011;46103;52.076;113.488;2023-08-06T11:35:54;32.22;;;22.27;;
60241;SDS011;46103;52.076;113.488;2023-08-06T11:39:19;33.50;;;25.42;;
60241;SDS011;46103;52.076;113.488;2023-08-06T11:42:23;19.65;;;15.20;;
60241;SDS011;46103;52.076;113.488;2023-08-06T11:45:28;22.92;;;16.83;;
60241;SDS011;46103;52.076;113.488;2023-08-06T11:48:50;22.05;;;16.75;;
60241;SDS011;46103;52.076;113.488;2023-08-06T11:52:12;19.02;;;15.45;;
60241;SDS011;46103;52.076;113.488;2023-08-06T11:55:25;15.80;;;12.55;;
60241;SDS011;46103;52.076;113.488;2023-08-06T11:58:33;13.00;;;10.05;;
60241;SDS011;46103;52.076;113.488;2023-08-06T12:01:40;16.02;;;13.60;;
60241;SDS011;46103;52.076;113.488;2023-08-06T12:05:30;14.38;;;11.45;;
60241;SDS011;46103;52.076;113.488;2023-08-06T12:08:25;13.48;;;10.65;;
60241;SDS011;46103;52.076;113.488;2023-08-06T12:11:36;14.75;;;10.73;;
60241;SDS011;46103;52.076;113.488;2023-08-06T12:14:43;13.50;;;11.77;;
60241;SDS011;46103;52.076;113.488;2023-08-06T12:17:54;11.20;;;9.90;;
60241;SDS011;46103;52.076;113.488;2023-08-06T12:21:04;11.23;;;9.80;;
60241;SDS011;46103;52.076;113.488;2023-08-06T12:24:17;11.18;;;9.60;;
60241;SDS011;46103;52.076;113.488;2023-08-06T12:27:24;11.68;;;10.45;;
60241;SDS011;46103;52.076;113.488;2023-08-06T12:30:37;11.70;;;8.30;;
60241;SDS011;46103;52.076;113.488;2023-08-06T12:33:49;10.77;;;8.82;;
60241;SDS011;46103;52.076;113.488;2023-08-06T12:36:57;11.50;;;9.10;;
60241;SDS011;46103;52.076;113.488;2023-08-06T12:40:08;12.95;;;11.50;;
60241;SDS011;46103;52.076;113.488;2023-08-06T12:43:30;12.52;;;10.50;;
60241;SDS011;46103;52.076;113.488;2023-08-06T12:46:38;14.05;;;11.77;;
60241;SDS011;46103;52.076;113.488;2023-08-06T12:49:47;12.32;;;10.77;;
60241;SDS011;46103;52.076;113.488;2023-08-06T12:52:54;13.27;;;11.90;;
60241;SDS011;46103;52.076;113.488;2023-08-06T12:56:01;14.27;;;12.02;;
60241;SDS011;46103;52.076;113.488;2023-08-06T12:59:09;13.45;;;10.45;;
60241;SDS011;46103;52.076;113.488;2023-08-06T13:02:18;12.55;;;9.57;;
60241;SDS011;46103;52.076;113.488;2023-08-06T13:05:25;11.30;;;9.63;;
60241;SDS011;46103;52.076;113.488;2023-08-06T13:08:32;13.05;;;10.43;;
60241;SDS011;46103;52.076;113.488;2023-08-06T13:11:40;12.13;;;10.02;;
60241;SDS011;46103;52.076;113.488;2023-08-06T13:14:53;10.45;;;8.93;;
60241;SDS011;46103;52.076;113.488;2023-08-06T13:18:03;12.40;;;8.95;;
60241;SDS011;46103;52.076;113.488;2023-08-06T13:21:10;9.38;;;8.18;;
60241;SDS011;46103;52.076;113.488;2023-08-06T13:24:17;14.30;;;9.85;;
60241;SDS011;46103;52.076;113.488;2023-08-06T13:27:25;14.07;;;9.65;;
60241;SDS011;46103;52.076;113.488;2023-08-06T13:30:31;11.93;;;8.90;;
60241;SDS011;46103;52.076;113.488;2023-08-06T13:33:39;10.32;;;9.10;;
60241;SDS011;46103;52.076;113.488;2023-08-06T13:36:44;10.02;;;8.07;;
60241;SDS011;46103;52.076;113.488;2023-08-06T13:39:50;9.80;;;8.80;;
60241;SDS011;46103;52.076;113.488;2023-08-06T13:42:59;9.38;;;8.35;;
60241;SDS011;46103;52.076;113.488;2023-08-06T13:46:21;10.85;;;8.57;;
60241;SDS011;46103;52.076;113.488;2023-08-06T13:49:28;10.07;;;8.65;;
60241;SDS011;46103;52.076;113.488;2023-08-06T13:52:40;10.65;;;8.30;;
60241;SDS011;46103;52.076;113.488;2023-08-06T13:55:47;11.65;;;9.35;;
60241;SDS011;46103;52.076;113.488;2023-08-06T13:58:53;9.00;;;7.35;;
60241;SDS011;46103;52.076;113.488;2023-08-06T14:02:00;12.27;;;9.48;;
60241;SDS011;46103;52.076;113.488;2023-08-06T14:05:06;11.05;;;9.13;;
60241;SDS011;46103;52.076;113.488;2023-08-06T14:08:13;11.45;;;8.77;;
60241;SDS011;46103;52.076;113.488;2023-08-06T14:11:20;10.38;;;8.55;;
60241;SDS011;46103;52.076;113.488;2023-08-06T14:14:28;10.02;;;8.93;;
60241;SDS011;46103;52.076;113.488;2023-08-06T14:17:36;10.73;;;8.45;;
60241;SDS011;46103;52.076;113.488;2023-08-06T14:20:43;9.70;;;8.52;;
60241;SDS011;46103;52.076;113.488;2023-08-06T14:23:50;11.73;;;9.02;;
60241;SDS011;46103;52.076;113.488;2023-08-06T14:26:57;10.40;;;9.32;;
60241;SDS011;46103;52.076;113.488;2023-08-06T14:30:03;9.63;;;8.63;;
60241;SDS011;46103;52.076;113.488;2023-08-06T14:33:11;10.80;;;7.90;;
60241;SDS011;46103;52.076;113.488;2023-08-06T14:36:28;9.93;;;8.85;;
60241;SDS011;46103;52.076;113.488;2023-08-06T14:39:33;10.35;;;8.25;;
60241;SDS011;46103;52.076;113.488;2023-08-06T14:42:38;9.95;;;8.27;;
60241;SDS011;46103;52.076;113.488;2023-08-06T14:45:44;10.20;;;8.52;;
60241;SDS011;46103;52.076;113.488;2023-08-06T14:48:50;10.60;;;8.75;;
60241;SDS011;46103;52.076;113.488;2023-08-06T14:51:55;9.77;;;8.25;;
60241;SDS011;46103;52.076;113.488;2023-08-06T14:55:04;11.55;;;8.98;;
60241;SDS011;46103;52.076;113.488;2023-08-06T14:58:09;10.48;;;9.15;;
60241;SDS011;46103;52.076;113.488;2023-08-06T15:01:14;10.52;;;7.68;;
60241;SDS011;46103;52.076;113.488;2023-08-06T15:04:19;10.05;;;8.82;;
60241;SDS011;46103;52.076;113.488;2023-08-06T15:07:22;11.25;;;8.18;;
60241;SDS011;46103;52.076;113.488;2023-08-06T15:10:30;9.07;;;7.70;;
60241;SDS011;46103;52.076;113.488;2023-08-06T15:13:37;10.20;;;7.80;;
60241;SDS011;46103;52.076;113.488;2023-08-06T15:16:41;11.23;;;8.57;;
60241;SDS011;46103;52.076;113.488;2023-08-06T15:19:45;9.82;;;7.78;;
60241;SDS011;46103;52.076;113.488;2023-08-06T15:22:51;10.85;;;8.73;;
60241;SDS011;46103;52.076;113.488;2023-08-06T15:25:55;8.65;;;7.38;;
60241;SDS011;46103;52.076;113.488;2023-08-06T15:29:00;9.90;;;7.53;;
60241;SDS011;46103;52.076;113.488;2023-08-06T15:32:04;9.10;;;7.32;;
60241;SDS011;46103;52.076;113.488;2023-08-06T15:35:09;8.98;;;7.20;;
60241;SDS011;46103;52.076;113.488;2023-08-06T15:38:13;10.82;;;8.23;;
60241;SDS011;46103;52.076;113.488;2023-08-06T15:41:17;10.10;;;7.65;;
60241;SDS011;46103;52.076;113.488;2023-08-06T15:44:22;11.02;;;8.45;;
60241;SDS011;46103;52.076;113.488;2023-08-06T15:47:26;8.88;;;7.40;;
60241;SDS011;46103;52.076;113.488;2023-08-06T15:50:30;9.93;;;6.78;;
60241;SDS011;46103;52.076;113.488;2023-08-06T15:53:33;10.40;;;7.88;;
60241;SDS011;46103;52.076;113.488;2023-08-06T15:56:37;9.55;;;7.13;;
60241;SDS011;46103;52.076;113.488;2023-08-06T15:59:41;8.38;;;7.20;;
60241;SDS011;46103;52.076;113.488;2023-08-06T16:02:45;12.13;;;8.82;;
60241;SDS011;46103;52.076;113.488;2023-08-06T16:05:50;9.73;;;8.57;;
60241;SDS011;46103;52.076;113.488;2023-08-06T16:08:53;9.40;;;7.35;;
60241;SDS011;46103;52.076;113.488;2023-08-06T16:11:57;8.60;;;6.97;;
60241;SDS011;46103;52.076;113.488;2023-08-06T16:15:01;8.15;;;6.65;;
60241;SDS011;46103;52.076;113.488;2023-08-06T16:18:06;8.90;;;7.10;;
60241;SDS011;46103;52.076;113.488;2023-08-06T16:21:09;9.88;;;7.70;;
60241;SDS011;46103;52.076;113.488;2023-08-06T16:24:14;9.52;;;7.50;;
60241;SDS011;46103;52.076;113.488;2023-08-06T16:27:17;9.93;;;8.05;;
60241;SDS011;46103;52.076;113.488;2023-08-06T16:30:21;9.32;;;8.27;;
60241;SDS011;46103;52.076;113.488;2023-08-06T16:33:25;9.13;;;7.15;;
60241;SDS011;46103;52.076;113.488;2023-08-06T16:36:29;9.13;;;6.93;;
60241;SDS011;46103;52.076;113.488;2023-08-06T16:39:33;8.73;;;6.85;;
60241;SDS011;46103;52.076;113.488;2023-08-06T16:42:36;7.88;;;6.60;;
60241;SDS011;46103;52.076;113.488;2023-08-06T16:45:40;9.52;;;7.05;;
60241;SDS011;46103;52.076;113.488;2023-08-06T16:48:44;9.32;;;7.22;;
60241;SDS011;46103;52.076;113.488;2023-08-06T16:51:48;8.32;;;7.05;;
60241;SDS011;46103;52.076;113.488;2023-08-06T16:54:52;9.50;;;6.75;;
60241;SDS011;46103;52.076;113.488;2023-08-06T16:57:55;8.68;;;7.65;;
60241;SDS011;46103;52.076;113.488;2023-08-06T17:00:59;9.65;;;6.80;;
60241;SDS011;46103;52.076;113.488;2023-08-06T17:04:08;10.38;;;6.97;;
60241;SDS011;46103;52.076;113.488;2023-08-06T17:07:12;9.70;;;7.18;;
60241;SDS011;46103;52.076;113.488;2023-08-06T17:10:16;10.10;;;6.80;;
60241;SDS011;46103;52.076;113.488;2023-08-06T17:13:23;9.50;;;7.18;;
60241;SDS011;46103;52.076;113.488;2023-08-06T17:16:28;9.35;;;7.10;;
60241;SDS011;46103;52.076;113.488;2023-08-06T17:19:33;9.32;;;7.22;;
60241;SDS011;46103;52.076;113.488;2023-08-06T17:22:37;8.57;;;6.75;;
60241;SDS011;46103;52.076;113.488;2023-08-06T17:25:42;7.93;;;7.03;;
60241;SDS011;46103;52.076;113.488;2023-08-06T17:28:47;10.18;;;6.93;;
60241;SDS011;46103;52.076;113.488;2023-08-06T17:31:52;8.20;;;7.13;;
60241;SDS011;46103;52.076;113.488;2023-08-06T17:34:56;9.38;;;6.93;;
60241;SDS011;46103;52.076;113.488;2023-08-06T17:38:01;9.30;;;6.68;;
60241;SDS011;46103;52.076;113.488;2023-08-06T17:41:05;12.00;;;7.80;;
60241;SDS011;46103;52.076;113.488;2023-08-06T17:44:10;9.30;;;6.72;;
60241;SDS011;46103;52.076;113.488;2023-08-06T17:47:14;7.55;;;6.10;;
60241;SDS011;46103;52.076;113.488;2023-08-06T17:50:37;8.65;;;6.43;;
60241;SDS011;46103;52.076;113.488;2023-08-06T17:53:41;8.65;;;6.40;;
60241;SDS011;46103;52.076;113.488;2023-08-06T17:56:45;9.30;;;6.70;;
60241;SDS011;46103;52.076;113.488;2023-08-06T17:59:49;7.78;;;6.50;;
60241;SDS011;46103;52.076;113.488;2023-08-06T18:02:53;8.98;;;6.35;;
60241;SDS011;46103;52.076;113.488;2023-08-06T18:05:57;8.68;;;6.78;;
60241;SDS011;46103;52.076;113.488;2023-08-06T18:09:05;9.80;;;6.63;;
60241;SDS011;46103;52.076;113.488;2023-08-06T18:12:09;10.65;;;7.03;;
60241;SDS011;46103;52.076;113.488;2023-08-06T18:15:12;10.13;;;7.03;;
60241;SDS011;46103;52.076;113.488;2023-08-06T18:18:15;8.52;;;6.00;;
60241;SDS011;46103;52.076;113.488;2023-08-06T18:21:19;8.95;;;6.15;;
60241;SDS011;46103;52.076;113.488;2023-08-06T18:24:26;8.30;;;6.35;;
60241;SDS011;46103;52.076;113.488;2023-08-06T18:27:30;8.88;;;6.07;;
60241;SDS011;46103;52.076;113.488;2023-08-06T18:30:34;9.77;;;6.82;;
60241;SDS011;46103;52.076;113.488;2023-08-06T18:33:38;9.52;;;6.30;;
60241;SDS011;46103;52.076;113.488;2023-08-06T18:36:42;9.00;;;6.05;;
60241;SDS011;46103;52.076;113.488;2023-08-06T18:39:49;9.52;;;6.68;;
60241;SDS011;46103;52.076;113.488;2023-08-06T18:42:53;9.18;;;6.22;;
60241;SDS011;46103;52.076;113.488;2023-08-06T18:45:57;8.38;;;6.70;;
60241;SDS011;46103;52.076;113.488;2023-08-06T18:49:01;8.98;;;6.43;;